Statesboro, Georgia
Current Conditions -  °F | °C
As of 4:15 AM on Monday 24 Nov 2014 (Local Time) from KTBR Reporting Station
Overcast Overcast  
Wind Chill: 66°   Ceiling: 600
Heat Index: 66°   Visibility: 10mi
Dew Point: 66°   Wind: 5mph
Humidity: 100%   Direction: 210°SSW
Pressure: 29.83"   Gusts: NA
Location:  32.45°N, 81.78°W
Report Text: KTBR 240915Z AUTO 21004KT 10SM OVC006 19/19 A2983 RMK AO2 T01910191
Loading
Personal Weather Stations






























Interactive Weather Map New forecast layout! Learn more

10-Day Weather Forecast

Advertisements
Track Severe Weather on mobile